Kingston, Indiana
Current Conditions -  °F | °C
As of 8:49 AM on Wednesday 28 Jan 2015 (Local Time) from KBAK Reporting Station
Haze Haze  
Wind Chill: 18°   Ceiling: Unl
Heat Index: 18°   Visibility: 5mi
Dew Point: 16°   Wind: 3mph
Humidity: 93%   Direction: 130°SE
Pressure: 30.38"   Gusts: NA
Location:  39.3206°N, 85.4768°W
Report Text: KBAK 281349Z 13003KT 5SM BR SKC M08/M09 A3038
Loading
Personal Weather Stations






























Interactive Weather Map New forecast layout! Learn more

10-Day Weather Forecast

Advertisements
Track Severe Weather on mobile